Time;durP1;ratioP1;P1;durP2;ratioP2;P2;SDS_P1;SDS_P2;PMS_P1;PMS_P2;Temp;Humidity;BMP_temperature;BMP_pressure;BME280_temperature;BME280_humidity;BME280_pressure;Samples;Min_cycle;Max_cycle;Signal;HPM_P1;HPM_P2
2021/08/24 00:02:14;;;;;;;4.40;4.10;;;;;;;13.54;100.00;96526.72;4916314;29;20516;-76
2021/08/24 00:04:39;;;;;;;5.07;4.23;;;;;;;13.50;100.00;96531.28;4916092;29;20433;-76
2021/08/24 00:07:05;;;;;;;4.50;4.10;;;;;;;13.45;100.00;96528.09;4916010;29;20429;-76
2021/08/24 00:09:31;;;;;;;4.53;3.67;;;;;;;13.60;100.00;96530.69;4930842;29;20448;-76
2021/08/24 00:11:56;;;;;;;4.32;3.75;;;;;;;13.62;100.00;96528.81;4916121;29;20433;-76
2021/08/24 00:14:23;;;;;;;4.73;4.10;;;;;;;13.56;100.00;96532.63;4916108;29;20949;-76
2021/08/24 00:16:49;;;;;;;4.43;4.00;;;;;;;13.50;100.00;96526.06;4916389;29;20469;-76
2021/08/24 00:19:14;;;;;;;9.07;4.13;;;;;;;13.47;100.00;96521.03;4915982;29;20942;-76
2021/08/24 00:21:40;;;;;;;4.60;4.20;;;;;;;13.37;100.00;96519.94;4916160;29;20508;-76
2021/08/24 00:24:10;;;;;;;10.45;4.65;;;;;;;13.25;100.00;96521.53;4915943;29;20436;-76
2021/08/24 00:26:35;;;;;;;16.77;4.38;;;;;;;13.15;100.00;96520.38;4915482;29;20417;-76
2021/08/24 00:29:01;;;;;;;5.13;4.00;;;;;;;13.11;100.00;96521.50;4915729;29;20871;-76
2021/08/24 00:31:28;;;;;;;7.53;4.10;;;;;;;13.03;100.00;96514.16;4915832;29;20432;-76
2021/08/24 00:33:54;;;;;;;9.68;4.20;;;;;;;13.00;100.00;96523.91;4915801;29;20425;-76
2021/08/24 00:36:19;;;;;;;16.20;4.47;;;;;;;12.98;100.00;96518.00;4915406;29;20433;-76
2021/08/24 00:38:45;;;;;;;6.88;4.40;;;;;;;12.96;100.00;96514.63;4915674;29;20501;-76
2021/08/24 00:41:11;;;;;;;7.07;4.65;;;;;;;12.95;100.00;96519.00;4915585;29;20425;-76
2021/08/24 00:43:39;;;;;;;5.00;4.18;;;;;;;12.92;100.00;96513.97;4914768;29;20436;-76
2021/08/24 00:46:14;;;;;;;4.60;4.05;;;;;;;12.97;100.00;96516.28;4915174;29;20433;-76
2021/08/24 00:48:42;;;;;;;4.20;3.78;;;;;;;13.15;100.00;96509.97;4915591;29;20436;-76
2021/08/24 00:51:09;;;;;;;3.88;3.50;;;;;;;13.29;100.00;96515.22;4915391;29;20435;-76
2021/08/24 00:53:36;;;;;;;4.27;3.87;;;;;;;13.41;100.00;96520.59;4915442;29;20515;-76
2021/08/24 00:56:04;;;;;;;4.18;3.78;;;;;;;13.27;100.00;96518.81;4914800;29;20437;-74
2021/08/24 00:58:30;;;;;;;4.67;4.23;;;;;;;13.18;100.00;96515.00;4915346;29;20465;-74
2021/08/24 01:00:55;;;;;;;5.63;4.33;;;;;;;13.14;100.00;96516.13;4915368;29;20871;-74
2021/08/24 01:03:24;;;;;;;6.03;4.27;;;;;;;13.13;100.00;96518.84;4915263;29;20807;-74
2021/08/24 01:05:53;;;;;;;3.85;3.50;;;;;;;13.13;100.00;96516.22;4914651;29;21014;-74
2021/08/24 01:08:28;;;;;;;4.63;3.67;;;;;;;13.13;100.00;96518.84;4915504;29;20524;-74
2021/08/24 01:11:04;;;;;;;4.22;3.67;;;;;;;13.18;100.00;96506.38;4914048;29;20441;-74
2021/08/24 01:13:35;;;;;;;6.13;3.65;;;;;;;13.32;100.00;96515.03;4915178;29;20425;-75
2021/08/24 01:16:06;;;;;;;3.70;3.40;;;;;;;13.29;100.00;96512.59;4914623;29;20433;-75
2021/08/24 01:18:38;;;;;;;5.47;4.10;;;;;;;13.24;100.00;96506.88;4914970;29;20461;-75
2021/08/24 01:21:35;;;;;;;4.20;3.63;;;;;;;13.27;100.00;96516.22;4929504;29;20428;-75
2021/08/24 01:24:08;;;;;;;5.68;3.85;;;;;;;13.18;100.00;96524.56;4914956;29;20433;-74
2021/08/24 01:26:40;;;;;;;4.15;3.75;;;;;;;13.24;100.00;96519.03;4914602;29;20853;-74
2021/08/24 01:29:34;;;;;;;4.10;3.70;;;;;;;13.23;100.00;96517.31;4915091;29;20429;-75
2021/08/24 01:32:17;;;;;;;4.18;3.60;;;;;;;13.25;100.00;96511.13;4906233;29;20916;-75
2021/08/24 01:34:57;;;;;;;5.80;3.97;;;;;;;13.24;100.00;96509.47;4914626;29;20421;-75
2021/08/24 01:37:33;;;;;;;4.57;3.67;;;;;;;13.26;100.00;96510.19;4914449;29;20835;-75
2021/08/24 01:40:05;;;;;;;3.83;3.27;;;;;;;13.40;100.00;96508.50;4914861;29;20493;-75
2021/08/24 01:42:31;;;;;;;4.30;3.30;;;;;;;13.61;100.00;96511.50;4929377;29;20439;-75
2021/08/24 01:45:03;;;;;;;5.00;3.00;;;;;;;13.74;100.00;96512.44;4914832;29;20425;-75
2021/08/24 01:47:38;;;;;;;3.53;3.22;;;;;;;13.74;100.00;96508.06;4914865;29;20852;-75
2021/08/24 01:50:10;;;;;;;4.20;3.72;;;;;;;13.72;100.00;96509.94;4914482;29;20444;-75
2021/08/24 01:52:42;;;;;;;4.40;3.53;;;;;;;13.54;100.00;96516.28;4929356;29;20441;-75
2021/08/24 01:55:12;;;;;;;3.67;3.20;;;;;;;13.40;100.00;96509.34;4914383;29;20429;-75
2021/08/24 01:57:45;;;;;;;3.33;3.03;;;;;;;13.36;100.00;96512.25;4914471;29;20433;-75
2021/08/24 02:00:13;;;;;;;3.77;3.33;;;;;;;13.26;100.00;96518.00;4929224;29;20429;-75
2021/08/24 02:02:43;;;;;;;8.40;3.40;;;;;;;12.99;100.00;96528.28;4914350;29;20425;-75
2021/08/24 02:05:14;;;;;;;6.55;3.20;;;;;;;13.04;100.00;96528.00;4914315;29;20429;-75
2021/08/24 02:07:43;;;;;;;3.00;2.70;;;;;;;13.04;100.00;96528.84;4914618;29;20520;-73
2021/08/24 02:10:15;;;;;;;4.88;3.35;;;;;;;13.01;100.00;96530.78;4914385;29;20420;-73
2021/08/24 02:12:44;;;;;;;4.00;3.00;;;;;;;13.03;100.00;96532.38;4913228;29;20512;-74
2021/08/24 02:15:10;;;;;;;3.87;2.80;;;;;;;13.05;100.00;96524.47;4928721;29;20439;-75
2021/08/24 02:17:39;;;;;;;3.92;2.50;;;;;;;13.11;100.00;96521.50;4914570;29;20477;-75
2021/08/24 02:20:12;;;;;;;3.63;2.80;;;;;;;13.08;100.00;96513.88;4929027;29;20440;-74
2021/08/24 02:22:42;;;;;;;4.72;2.78;;;;;;;13.22;100.00;96515.66;4914321;29;20424;-75
2021/08/24 02:25:13;;;;;;;6.72;2.78;;;;;;;13.43;100.00;96513.53;4914136;29;20986;-75
2021/08/24 02:27:43;;;;;;;3.97;3.13;;;;;;;13.35;100.00;96519.22;4914249;29;20443;-75
2021/08/24 02:30:09;;;;;;;4.50;2.83;;;;;;;13.45;100.00;96519.47;4914408;29;20488;-75
2021/08/24 02:32:39;;;;;;;3.80;2.97;;;;;;;13.17;100.00;96518.53;4914110;29;21010;-74
2021/08/24 02:35:13;;;;;;;4.50;2.90;;;;;;;13.07;100.00;96514.81;4914021;29;20472;-74
2021/08/24 02:37:48;;;;;;;5.20;3.30;;;;;;;12.87;100.00;96521.25;4914352;29;20841;-74
2021/08/24 02:40:20;;;;;;;6.80;2.90;;;;;;;12.90;100.00;96518.44;4914329;29;20580;-73
2021/08/24 02:42:50;;;;;;;7.40;3.15;;;;;;;12.95;100.00;96519.00;4914242;29;20433;-73
2021/08/24 02:45:22;;;;;;;4.55;2.90;;;;;;;12.92;100.00;96513.16;4913781;29;20429;-73
2021/08/24 02:47:48;;;;;;;3.10;2.80;;;;;;;12.90;100.00;96515.81;4914620;29;20957;-74
2021/08/24 02:50:13;;;;;;;2.63;2.33;;;;;;;12.88;100.00;96509.06;4914197;29;20460;-74
2021/08/24 02:52:39;;;;;;;3.60;2.60;;;;;;;12.88;100.00;96509.91;4929015;29;20459;-74
2021/08/24 02:55:08;;;;;;;9.50;2.87;;;;;;;12.94;100.00;96508.69;4912699;29;20425;-74
2021/08/24 02:57:33;;;;;;;3.60;2.70;;;;;;;13.00;100.00;96511.75;4912836;29;20516;-73
2021/08/24 02:59:59;;;;;;;7.00;3.17;;;;;;;12.82;100.00;96510.25;4928674;29;20449;-74
2021/08/24 03:02:24;;;;;;;7.33;3.40;;;;;;;12.65;100.00;96505.25;4914019;29;20507;-73
2021/08/24 03:04:50;;;;;;;3.57;2.93;;;;;;;12.42;100.00;96510.03;4931800;23;20538;-73
2021/08/24 03:07:23;;;;;;;9.95;3.20;;;;;;;12.18;100.00;96511.44;4935771;29;20427;-73
2021/08/24 03:09:49;;;;;;;5.45;3.10;;;;;;;11.98;100.00;96502.19;4935008;29;20435;-73
2021/08/24 03:12:28;;;;;;;12.13;3.23;;;;;;;11.74;100.00;96500.00;4936366;29;20459;-73
2021/08/24 03:14:59;;;;;;;21.80;3.03;;;;;;;11.53;100.00;96496.00;4936098;29;20833;-73
2021/08/24 03:17:31;;;;;;;52.00;3.50;;;;;;;11.28;100.00;96493.94;4936378;29;20427;-73
2021/08/24 03:20:00;;;;;;;62.83;3.63;;;;;;;11.13;100.00;96495.59;4936056;29;21030;-73
2021/08/24 03:22:26;;;;;;;69.57;4.40;;;;;;;11.10;100.00;96508.72;4936030;29;20423;-73
2021/08/24 03:24:52;;;;;;;47.90;3.65;;;;;;;11.18;100.00;96497.94;4935933;29;20442;-73
2021/08/24 03:27:17;;;;;;;32.00;3.35;;;;;;;11.24;100.00;96495.84;4935691;29;20525;-73
2021/08/24 03:29:57;;;;;;;20.40;3.53;;;;;;;11.43;100.00;96494.84;4936057;29;20428;-73
2021/08/24 03:32:23;;;;;;;44.58;3.95;;;;;;;11.48;100.00;96492.84;4935916;29;20928;-73
2021/08/24 03:34:48;;;;;;;42.33;3.47;;;;;;;11.34;100.00;96501.34;4935748;29;20435;-73
2021/08/24 03:37:14;;;;;;;74.23;4.57;;;;;;;11.21;100.00;96501.19;4935621;29;20486;-73
2021/08/24 03:39:39;;;;;;;62.53;5.03;;;;;;;11.24;100.00;96508.81;4935937;29;20512;-73
2021/08/24 03:42:04;;;;;;;91.38;5.43;;;;;;;11.08;100.00;96501.00;4935861;29;20918;-73
2021/08/24 03:44:30;;;;;;;72.80;4.70;;;;;;;11.02;100.00;96506.53;4937832;29;20459;-73
2021/08/24 03:46:57;;;;;;;49.07;4.20;;;;;;;10.98;100.00;96504.19;4939554;29;20427;-74
2021/08/24 03:49:22;;;;;;;59.03;3.80;;;;;;;10.97;100.00;96511.09;4937389;29;20429;-73
2021/08/24 03:51:47;;;;;;;26.83;3.80;;;;;;;11.12;100.00;96514.63;4936305;29;20419;-73
2021/08/24 03:54:13;;;;;;;31.83;3.13;;;;;;;11.07;100.00;96508.88;4935790;29;20424;-73
2021/08/24 03:56:39;;;;;;;42.53;3.93;;;;;;;10.90;100.00;96518.38;4935532;29;20431;-73
2021/08/24 03:59:05;;;;;;;34.25;3.67;;;;;;;10.90;100.00;96513.19;4935357;29;20431;-73
2021/08/24 04:01:30;;;;;;;56.90;3.80;;;;;;;10.88;100.00;96525.38;4935278;29;20559;-73
2021/08/24 04:03:58;;;;;;;63.35;4.38;;;;;;;10.81;100.00;96518.84;4934136;29;20431;-73
2021/08/24 04:06:24;;;;;;;72.15;4.22;;;;;;;10.77;100.00;96521.69;4934880;29;20518;-73
2021/08/24 04:08:49;;;;;;;81.43;4.93;;;;;;;10.71;100.00;96519.38;4935173;29;20846;-73
2021/08/24 04:11:16;;;;;;;83.37;5.40;;;;;;;10.78;100.00;96526.75;4935282;29;20431;-73
2021/08/24 04:13:41;;;;;;;96.95;5.82;;;;;;;10.80;100.00;96527.53;4935087;29;20428;-73
2021/08/24 04:16:09;;;;;;;71.47;5.20;;;;;;;10.82;100.00;96528.28;4933327;29;20782;-73
2021/08/24 04:18:35;;;;;;;5.53;3.72;;;;;;;11.07;100.00;96538.22;4934155;29;20491;-73
2021/08/24 04:21:06;;;;;;;40.13;4.28;;;;;;;11.21;100.00;96529.72;4934961;29;20439;-73
2021/08/24 04:23:31;;;;;;;7.13;3.22;;;;;;;11.30;100.00;96530.97;4935032;29;20459;-73
2021/08/24 04:25:57;;;;;;;4.55;2.95;;;;;;;11.35;100.00;96532.41;4934542;29;20465;-75
2021/08/24 04:28:23;;;;;;;3.75;3.00;;;;;;;11.38;100.00;96531.41;4934517;29;20427;-75
2021/08/24 04:30:48;;;;;;;23.67;3.80;;;;;;;11.39;100.00;96533.91;4934387;29;20427;-75
2021/08/24 04:33:13;;;;;;;9.25;3.00;;;;;;;11.45;100.00;96527.56;4934944;29;20474;-75
2021/08/24 04:35:39;;;;;;;4.30;2.77;;;;;;;11.43;100.00;96534.59;4934352;29;20531;-75
2021/08/24 04:38:06;;;;;;;5.00;2.60;;;;;;;11.45;100.00;96537.09;4933425;29;20424;-75
2021/08/24 04:40:32;;;;;;;3.30;2.90;;;;;;;11.43;100.00;96533.75;4935147;29;20542;-75
2021/08/24 04:42:57;;;;;;;3.72;3.10;;;;;;;11.38;100.00;96532.25;4933077;29;20431;-77
2021/08/24 04:45:23;;;;;;;5.47;2.93;;;;;;;11.43;100.00;96538.94;4934523;29;20429;-76
2021/08/24 04:47:48;;;;;;;43.75;4.05;;;;;;;11.13;100.00;96537.06;4934613;29;20420;-75
2021/08/24 04:50:14;;;;;;;26.10;3.28;;;;;;;11.13;100.00;96542.25;4934503;29;20424;-75
2021/08/24 04:52:39;;;;;;;4.30;3.27;;;;;;;11.10;100.00;96547.59;4934386;29;20435;-75
2021/08/24 04:55:07;;;;;;;16.47;3.40;;;;;;;11.10;100.00;96542.41;4932955;29;20454;-75
2021/08/24 04:57:33;;;;;;;9.10;3.50;;;;;;;11.26;100.00;96547.63;4934134;29;20441;-75
2021/08/24 04:59:58;;;;;;;4.20;3.17;;;;;;;11.36;100.00;96546.22;4934585;29;20431;-75
2021/08/24 05:02:24;;;;;;;4.07;2.83;;;;;;;11.37;100.00;96551.31;4933197;29;20439;-75
2021/08/24 05:04:50;;;;;;;4.47;3.00;;;;;;;11.44;100.00;96551.81;4934144;29;20939;-75
2021/08/24 05:07:15;;;;;;;5.63;2.40;;;;;;;11.46;100.00;96554.31;4934012;29;20419;-75
2021/08/24 05:09:41;;;;;;;3.53;2.13;;;;;;;11.46;100.00;96554.31;4934552;29;20430;-75
2021/08/24 05:12:09;;;;;;;7.70;2.60;;;;;;;11.45;100.00;96558.69;4934226;29;20419;-75
2021/08/24 05:14:35;;;;;;;21.27;3.00;;;;;;;11.27;100.00;96567.44;4933965;29;20435;-75
2021/08/24 05:17:00;;;;;;;29.00;3.53;;;;;;;11.30;100.00;96565.50;4933783;29;20431;-75
2021/08/24 05:19:26;;;;;;;27.70;3.70;;;;;;;11.42;100.00;96563.19;4934004;29;20462;-75
2021/08/24 05:21:51;;;;;;;7.00;2.83;;;;;;;11.51;100.00;96563.53;4933955;29;20785;-75
2021/08/24 05:24:17;;;;;;;3.47;3.03;;;;;;;11.63;100.00;96562.03;4933999;29;20514;-75
2021/08/24 05:26:43;;;;;;;10.90;2.67;;;;;;;11.78;100.00;96565.56;4932765;29;20426;-77
2021/08/24 05:29:10;;;;;;;3.30;2.70;;;;;;;11.82;100.00;96565.28;4925511;29;20797;-77
2021/08/24 05:31:35;;;;;;;45.70;3.75;;;;;;;11.80;100.00;96566.31;4935375;29;20957;-76
2021/08/24 05:34:01;;;;;;;21.67;3.33;;;;;;;11.43;100.00;96562.28;4936000;29;20491;-77
2021/08/24 05:36:26;;;;;;;6.20;3.08;;;;;;;11.51;100.00;96562.72;4935714;29;20980;-77
2021/08/24 05:38:52;;;;;;;3.38;3.08;;;;;;;11.69;100.00;96558.28;4937497;29;20426;-77
2021/08/24 05:41:17;;;;;;;11.07;3.13;;;;;;;11.79;100.00;96552.50;4938706;29;20424;-77
2021/08/24 05:43:43;;;;;;;8.18;3.53;;;;;;;11.93;100.00;96549.16;4937939;29;20506;-77
2021/08/24 05:46:12;;;;;;;8.93;3.65;;;;;;;12.05;100.00;96552.81;4934944;29;20510;-77
2021/08/24 05:48:38;;;;;;;5.25;3.42;;;;;;;11.83;100.00;96568.75;4938310;29;20435;-77
2021/08/24 05:51:07;;;;;;;4.88;3.03;;;;;;;11.82;100.00;96562.69;4941566;29;20518;-82
2021/08/24 05:53:33;;;;;;;4.22;3.22;;;;;;;12.03;100.00;96555.53;4935727;29;20419;-75
2021/08/24 05:55:58;;;;;;;8.50;3.00;;;;;;;11.73;100.00;96557.19;4932945;29;20874;-74
2021/08/24 05:58:24;;;;;;;15.13;3.40;;;;;;;11.58;100.00;96567.47;4933223;29;20431;-74
2021/08/24 06:00:49;;;;;;;8.07;3.10;;;;;;;11.55;100.00;96564.22;4933485;29;20436;-74
2021/08/24 06:03:20;;;;;;;15.07;3.10;;;;;;;11.65;100.00;96568.00;4933391;29;20423;-75
2021/08/24 06:05:45;;;;;;;14.05;3.38;;;;;;;11.51;100.00;96562.72;4932412;29;20431;-75
2021/08/24 06:08:11;;;;;;;7.00;2.87;;;;;;;11.40;100.00;96560.69;4933456;29;20925;-75
2021/08/24 06:10:38;;;;;;;7.77;2.57;;;;;;;11.38;100.00;96559.91;4933178;29;20435;-75
2021/08/24 06:13:04;;;;;;;14.73;3.47;;;;;;;11.37;100.00;96559.09;4933412;29;20455;-75
2021/08/24 06:15:29;;;;;;;18.88;3.10;;;;;;;11.32;100.00;96566.28;4933117;29;20423;-75
2021/08/24 06:17:55;;;;;;;8.18;3.17;;;;;;;11.25;100.00;96564.09;4933458;29;20432;-74
2021/08/24 06:20:21;;;;;;;20.53;3.73;;;;;;;11.42;100.00;96564.06;4933433;29;20431;-77
2021/08/24 06:22:47;;;;;;;23.15;3.50;;;;;;;11.38;100.00;96558.19;4933722;29;20437;-76
2021/08/24 06:25:13;;;;;;;5.03;3.40;;;;;;;11.57;100.00;96552.84;4932285;29;20781;-77
2021/08/24 06:27:38;;;;;;;6.60;4.30;;;;;;;11.67;100.00;96554.94;4925720;29;20943;-77
2021/08/24 06:30:05;;;;;;;9.93;3.80;;;;;;;11.82;100.00;96556.69;4915865;29;20433;-78
2021/08/24 06:32:33;;;;;;;7.53;4.57;;;;;;;11.85;100.00;96556.53;4916968;29;20421;-77
2021/08/24 06:34:59;;;;;;;5.60;3.92;;;;;;;12.27;100.00;96566.31;4915103;29;20433;-77
2021/08/24 06:37:27;;;;;;;3.45;3.15;;;;;;;12.64;100.00;96564.16;4914993;29;20440;-77
2021/08/24 06:39:53;;;;;;;3.50;3.20;;;;;;;12.80;100.00;96557.16;4914840;29;20435;-77
2021/08/24 06:42:18;;;;;;;4.78;3.60;;;;;;;13.44;100.00;96565.47;4917986;29;20416;-77
2021/08/24 06:44:44;;;;;;;6.68;4.15;;;;;;;13.70;100.00;96558.66;4917727;29;20436;-77
2021/08/24 06:47:09;;;;;;;5.18;4.03;;;;;;;14.03;100.00;96557.44;4925475;29;20423;-77
2021/08/24 06:49:35;;;;;;;6.10;3.70;;;;;;;14.18;100.00;96551.25;4928738;29;20428;-78
2021/08/24 06:52:04;;;;;;;6.33;3.90;;;;;;;14.38;100.00;96559.53;4932988;29;20487;-78
2021/08/24 06:54:31;;;;;;;5.63;3.83;;;;;;;14.56;100.00;96558.34;4942259;29;20423;-77
2021/08/24 06:56:57;;;;;;;5.60;3.80;;;;;;;14.33;99.20;96566.81;4936212;29;20870;-76
2021/08/24 06:59:23;;;;;;;5.22;3.78;;;;;;;14.36;99.37;96559.66;4926317;29;20435;-78
2021/08/24 07:01:49;;;;;;;4.80;3.40;;;;;;;14.53;100.00;96555.94;4936421;29;20466;-77
2021/08/24 07:04:14;;;;;;;5.93;4.07;;;;;;;14.55;98.55;96558.47;4936677;29;20986;-77
2021/08/24 07:06:40;;;;;;;8.63;3.72;;;;;;;14.53;99.52;96558.56;4934991;29;20437;-77
2021/08/24 07:09:05;;;;;;;4.57;3.60;;;;;;;14.93;98.83;96555.91;4939098;29;20510;-77
2021/08/24 07:11:32;;;;;;;5.90;4.13;;;;;;;15.10;97.03;96554.75;4939231;29;20511;-78
2021/08/24 07:14:00;;;;;;;4.15;3.63;;;;;;;14.59;95.08;96558.16;4940978;29;20475;-78
2021/08/24 07:16:26;;;;;;;4.65;3.38;;;;;;;14.68;98.29;96557.56;4940675;29;20424;-78
2021/08/24 07:18:53;;;;;;;4.87;3.20;;;;;;;14.76;96.98;96564.88;4940197;29;20427;-77
2021/08/24 07:21:20;;;;;;;5.40;3.47;;;;;;;14.69;96.39;96563.59;4939103;29;20976;-79
2021/08/24 07:23:46;;;;;;;5.70;3.90;;;;;;;14.58;93.36;96556.50;4942338;29;20428;-77
2021/08/24 07:26:13;;;;;;;4.20;3.17;;;;;;;14.75;94.71;96557.97;4944115;23;20439;-76
2021/08/24 07:28:40;;;;;;;5.22;3.33;;;;;;;14.93;95.49;96554.13;4924531;29;20437;-77
2021/08/24 07:31:06;;;;;;;4.38;3.22;;;;;;;14.80;94.62;96552.47;4921937;29;20498;-77
2021/08/24 07:33:32;;;;;;;5.57;3.50;;;;;;;14.80;95.75;96545.47;4946381;29;20438;-78
2021/08/24 07:35:58;;;;;;;4.57;3.25;;;;;;;14.90;93.51;96551.72;4939049;29;20507;-77
2021/08/24 07:38:24;;;;;;;9.55;4.05;;;;;;;14.66;93.12;96554.22;4936679;29;20427;-77
2021/08/24 07:40:50;;;;;;;5.78;3.35;;;;;;;14.70;96.39;96544.41;4937106;29;20462;-77
2021/08/24 07:43:16;;;;;;;5.18;3.15;;;;;;;14.98;91.95;96556.41;4936247;29;20846;-77
2021/08/24 07:45:44;;;;;;;6.63;3.65;;;;;;;14.77;90.62;96554.31;4935807;29;20431;-78
2021/08/24 07:48:10;;;;;;;4.97;3.42;;;;;;;15.00;93.23;96551.94;4939757;29;20775;-77
2021/08/24 07:50:35;;;;;;;4.27;2.90;;;;;;;14.75;95.72;96555.34;4936490;29;20518;-77
2021/08/24 07:53:00;;;;;;;7.10;3.40;;;;;;;14.83;94.95;96558.31;4935563;29;20426;-77
2021/08/24 07:55:26;;;;;;;6.00;3.10;;;;;;;14.43;94.61;96565.28;4938833;29;20431;-78
2021/08/24 07:57:51;;;;;;;4.47;3.20;;;;;;;14.62;99.21;96563.16;4935760;29;20422;-77
2021/08/24 08:00:19;;;;;;;3.38;3.08;;;;;;;14.80;94.58;96568.09;4936236;29;20418;-77
2021/08/24 08:02:46;;;;;;;3.40;3.07;;;;;;;15.08;93.39;96565.28;4936042;29;20522;-76
2021/08/24 08:05:11;;;;;;;6.13;3.17;;;;;;;15.17;89.95;96561.22;4939161;29;20593;-77
2021/08/24 08:07:37;;;;;;;5.07;3.33;;;;;;;15.25;90.53;96572.81;4935789;29;20519;-77
2021/08/24 08:10:03;;;;;;;5.37;3.37;;;;;;;15.16;90.95;96576.03;4935437;29;20523;-78
2021/08/24 08:12:28;;;;;;;5.80;3.35;;;;;;;15.04;87.87;96570.81;4934033;29;20815;-77
2021/08/24 08:14:54;;;;;;;5.00;3.00;;;;;;;14.67;89.55;96571.50;4934964;29;20502;-77
2021/08/24 08:17:20;;;;;;;4.07;2.80;;;;;;;15.00;90.17;96578.03;4934407;29;20431;-77
2021/08/24 08:19:47;;;;;;;4.47;3.47;;;;;;;15.15;86.69;96568.31;4935389;29;20442;-73
2021/08/24 08:22:12;;;;;;;5.70;3.25;;;;;;;15.24;89.48;96567.72;4935161;29;20455;-73
2021/08/24 08:24:38;;;;;;;3.78;3.00;;;;;;;15.19;91.38;96575.81;4934940;29;20462;-72
2021/08/24 08:27:04;;;;;;;4.75;3.08;;;;;;;15.48;88.56;96570.38;4933466;29;20458;-73
2021/08/24 08:29:30;;;;;;;4.05;2.63;;;;;;;15.08;89.69;96572.28;4935009;29;20640;-73
2021/08/24 08:32:01;;;;;;;4.27;3.20;;;;;;;15.00;89.28;96572.81;4934898;29;20522;-73
2021/08/24 08:34:27;;;;;;;4.32;3.05;;;;;;;15.34;89.23;96579.16;4934781;29;20439;-73
2021/08/24 08:36:54;;;;;;;7.75;3.20;;;;;;;15.07;88.11;96575.84;4934585;29;20898;-73
2021/08/24 08:39:19;;;;;;;4.63;3.23;;;;;;;15.14;91.46;96575.31;4935033;29;20434;-73
2021/08/24 08:42:02;;;;;;;5.80;3.53;;;;;;;15.36;92.06;96573.84;4934805;29;20430;-73
2021/08/24 08:44:37;;;;;;;3.55;2.75;;;;;;;15.04;89.15;96571.66;4934714;29;20825;-73
2021/08/24 08:47:14;;;;;;;3.22;2.92;;;;;;;15.14;90.65;96572.72;4934437;29;20427;-73
2021/08/24 08:49:47;;;;;;;3.63;2.78;;;;;;;14.98;90.53;96577.28;4935100;29;20419;-75
2021/08/24 08:52:24;;;;;;;5.25;3.28;;;;;;;14.72;89.95;96577.28;4935789;29;20490;-74
2021/08/24 08:54:57;;;;;;;4.90;3.28;;;;;;;14.54;92.62;96569.84;4934684;29;20535;-75
2021/08/24 08:57:29;;;;;;;4.88;2.92;;;;;;;14.80;92.25;96570.72;4933672;29;20443;-75
2021/08/24 09:00:04;;;;;;;5.00;3.38;;;;;;;14.84;89.94;96567.78;4934411;29;20510;-74
2021/08/24 09:02:40;;;;;;;3.10;2.78;;;;;;;14.66;91.28;96564.63;4934481;29;20933;-75
2021/08/24 09:05:09;;;;;;;5.32;2.80;;;;;;;15.11;89.63;96565.09;4933097;29;20443;-74
2021/08/24 09:07:40;;;;;;;4.68;3.08;;;;;;;15.37;91.16;96565.91;4934056;29;20426;-74
2021/08/24 09:10:10;;;;;;;3.97;2.70;;;;;;;15.45;90.78;96562.75;4934271;29;20436;-75
2021/08/24 09:12:36;;;;;;;3.42;2.55;;;;;;;15.80;85.78;96559.50;4934227;29;20428;-74
2021/08/24 09:15:07;;;;;;;5.20;2.92;;;;;;;15.83;83.38;96556.63;4934293;29;20435;-75
2021/08/24 09:17:36;;;;;;;4.38;3.13;;;;;;;16.02;84.18;96557.00;4933938;29;20442;-75
2021/08/24 09:20:12;;;;;;;6.93;2.88;;;;;;;16.14;80.23;96561.34;4934195;29;20455;-75
2021/08/24 09:22:40;;;;;;;4.47;3.10;;;;;;;16.11;80.42;96553.72;4934087;29;20448;-74
2021/08/24 09:25:14;;;;;;;4.90;3.00;;;;;;;16.55;82.21;96548.81;4932491;29;20495;-73
2021/08/24 09:27:49;;;;;;;3.47;3.17;;;;;;;16.68;79.09;96557.38;4933639;29;20482;-75
2021/08/24 09:30:16;;;;;;;3.90;3.10;;;;;;;16.57;79.00;96566.03;4932695;29;20522;-75
2021/08/24 09:32:41;;;;;;;4.38;3.30;;;;;;;16.71;78.35;96557.16;4932435;29;20930;-75
2021/08/24 09:35:24;;;;;;;5.47;3.10;;;;;;;16.97;82.26;96563.06;4933629;29;20434;-74
2021/08/24 09:37:51;;;;;;;5.57;3.10;;;;;;;16.63;80.12;96565.56;4933817;29;20423;-75
2021/08/24 09:40:34;;;;;;;3.38;2.97;;;;;;;16.47;79.21;96557.22;4933815;29;20428;-75
2021/08/24 09:43:19;;;;;;;23.35;3.50;;;;;;;16.60;81.39;96560.56;4933675;29;20431;-75
2021/08/24 09:45:45;;;;;;;3.97;3.10;;;;;;;16.56;77.93;96572.22;4933452;29;20458;-76
2021/08/24 09:48:15;;;;;;;4.78;2.63;;;;;;;16.50;76.54;96562.22;4933742;29;20479;-75
2021/08/24 09:50:43;;;;;;;4.13;3.05;;;;;;;16.58;82.08;96567.72;4933759;29;20981;-75
2021/08/24 09:53:23;;;;;;;4.23;2.73;;;;;;;16.84;81.45;96557.94;4942803;29;20419;-75
2021/08/24 09:55:49;;;;;;;3.97;2.92;;;;;;;16.79;78.56;96559.22;4945976;29;20466;-75
2021/08/24 09:58:31;;;;;;;3.45;2.90;;;;;;;16.68;79.75;96555.59;4942928;29;20427;-74
2021/08/24 10:01:00;;;;;;;4.05;3.30;;;;;;;16.52;80.48;96560.31;4937662;29;20427;-74
2021/08/24 10:03:37;;;;;;;5.93;3.00;;;;;;;16.38;83.77;96555.25;4934534;29;20435;-74
2021/08/24 10:06:06;;;;;;;4.23;3.33;;;;;;;16.37;82.50;96558.84;4933353;29;20508;-75
2021/08/24 10:08:35;;;;;;;4.07;3.20;;;;;;;16.24;81.27;96555.44;4933547;29;20431;-76
2021/08/24 10:11:09;;;;;;;4.68;3.20;;;;;;;16.31;84.24;96560.09;4933556;29;20483;-75
2021/08/24 10:13:37;;;;;;;7.93;4.43;;;;;;;16.20;83.04;96570.50;4933498;29;20431;-75
2021/08/24 10:16:06;;;;;;;8.10;4.07;;;;;;;16.09;85.91;96558.25;4936300;29;20446;-75
2021/08/24 10:18:34;;;;;;;5.72;4.00;;;;;;;15.98;84.84;96555.53;4937236;29;20424;-75
2021/08/24 10:21:02;;;;;;;5.53;3.63;;;;;;;16.04;87.79;96560.34;4937282;29;20498;-75
2021/08/24 10:23:33;;;;;;;4.35;3.95;;;;;;;15.83;87.34;96562.69;4937232;29;20431;-75
2021/08/24 10:26:02;;;;;;;5.43;4.00;;;;;;;15.59;87.10;96564.41;4935560;29;20424;-75
2021/08/24 10:28:30;;;;;;;4.95;3.90;;;;;;;15.64;86.58;96567.53;4936838;29;20466;-75
2021/08/24 10:30:58;;;;;;;7.53;3.67;;;;;;;15.38;87.89;96579.78;4936892;29;20482;-75
2021/08/24 10:33:29;;;;;;;6.50;3.92;;;;;;;15.43;87.55;96580.31;4936983;29;20435;-76
2021/08/24 10:35:58;;;;;;;7.97;3.92;;;;;;;15.11;89.33;96575.53;4935455;29;20521;-75
2021/08/24 10:38:39;;;;;;;4.28;3.88;;;;;;;15.34;89.30;96589.59;4936960;29;20442;-75
2021/08/24 10:41:22;;;;;;;6.70;3.88;;;;;;;15.28;89.64;96590.03;4936885;29;20431;-75
2021/08/24 10:43:51;;;;;;;5.95;4.05;;;;;;;15.22;89.12;96587.84;4936547;29;20427;-76
2021/08/24 10:46:17;;;;;;;5.70;3.97;;;;;;;15.25;89.91;96587.63;4936359;29;20431;-75
2021/08/24 10:48:43;;;;;;;4.85;3.53;;;;;;;15.22;92.45;96582.63;4936869;29;20430;-75
2021/08/24 10:51:16;;;;;;;5.03;3.73;;;;;;;15.40;92.50;96586.56;4936707;29;20458;-76
2021/08/24 10:53:49;;;;;;;4.10;3.28;;;;;;;15.56;89.78;96575.91;4936794;29;20423;-75
2021/08/24 10:56:20;;;;;;;4.38;3.22;;;;;;;15.46;88.73;96583.56;4936431;29;20508;-74
2021/08/24 10:58:54;;;;;;;3.65;3.10;;;;;;;15.41;89.29;96582.19;4936590;29;20434;-75
2021/08/24 11:01:26;;;;;;;5.70;3.40;;;;;;;15.63;88.62;96582.34;4936601;29;20561;-75
2021/08/24 11:04:07;;;;;;;8.13;3.60;;;;;;;16.03;88.67;96576.13;4936506;29;20431;-75
2021/08/24 11:06:40;;;;;;;5.78;3.63;;;;;;;16.06;89.23;96568.06;4936127;29;20473;-75
2021/08/24 11:09:17;;;;;;;5.18;3.58;;;;;;;16.06;86.74;96576.75;4936714;29;20539;-74
2021/08/24 11:11:53;;;;;;;4.28;3.20;;;;;;;16.04;87.54;96572.56;4936671;29;20431;-74
2021/08/24 11:14:31;;;;;;;3.92;3.50;;;;;;;15.95;89.67;96576.69;4936925;29;20549;-74
2021/08/24 11:17:06;;;;;;;4.30;3.40;;;;;;;16.07;87.42;96580.19;4936113;29;20467;-74
2021/08/24 11:19:45;;;;;;;4.40;3.92;;;;;;;15.97;86.19;96580.84;4935489;29;20986;-74
2021/08/24 11:22:24;;;;;;;5.18;3.78;;;;;;;15.87;87.27;96589.44;4936130;29;20972;-74
2021/08/24 11:24:58;;;;;;;4.57;3.70;;;;;;;15.64;86.78;96581.41;4936196;29;20953;-75
2021/08/24 11:27:36;;;;;;;5.40;3.60;;;;;;;15.80;88.64;96580.38;4934923;29;20415;-75
2021/08/24 11:30:09;;;;;;;5.72;3.90;;;;;;;15.90;88.70;96578.78;4934904;29;20459;-75
2021/08/24 11:32:38;;;;;;;6.85;3.70;;;;;;;15.84;88.42;96581.84;4936025;29;20428;-75
2021/08/24 11:35:09;;;;;;;4.97;3.72;;;;;;;15.56;89.33;96585.50;4935950;29;20834;-73